sensor_id;sensor_type;location;lat;lon;timestamp;P1;durP1;ratioP1;P2;durP2;ratioP2
25319;SDS011;13256;49.012;8.610;2023-10-31T00:03:59;1.13;;;0.70;;
25319;SDS011;13256;49.012;8.610;2023-10-31T00:09:28;0.85;;;0.60;;
25319;SDS011;13256;49.012;8.610;2023-10-31T00:11:58;1.10;;;0.93;;
25319;SDS011;13256;49.012;8.610;2023-10-31T00:14:25;2.95;;;1.50;;
25319;SDS011;13256;49.012;8.610;2023-10-31T00:17:23;10.63;;;4.30;;
25319;SDS011;13256;49.012;8.610;2023-10-31T00:19:53;3.17;;;1.50;;
25319;SDS011;13256;49.012;8.610;2023-10-31T00:25:17;1.20;;;1.08;;
25319;SDS011;13256;49.012;8.610;2023-10-31T00:30:55;3.75;;;0.70;;
25319;SDS011;13256;49.012;8.610;2023-10-31T00:36:27;1.25;;;0.70;;
25319;SDS011;13256;49.012;8.610;2023-10-31T00:38:57;1.13;;;0.80;;
25319;SDS011;13256;49.012;8.610;2023-10-31T00:41:26;5.05;;;0.82;;
25319;SDS011;13256;49.012;8.610;2023-10-31T00:43:54;1.25;;;0.68;;
25319;SDS011;13256;49.012;8.610;2023-10-31T00:49:29;2.15;;;0.70;;
25319;SDS011;13256;49.012;8.610;2023-10-31T01:00:41;0.65;;;0.60;;
25319;SDS011;13256;49.012;8.610;2023-10-31T01:06:41;1.85;;;0.43;;
25319;SDS011;13256;49.012;8.610;2023-10-31T01:09:10;0.77;;;0.50;;
25319;SDS011;13256;49.012;8.610;2023-10-31T01:11:42;0.82;;;0.50;;
25319;SDS011;13256;49.012;8.610;2023-10-31T01:14:14;0.85;;;0.50;;
25319;SDS011;13256;49.012;8.610;2023-10-31T01:16:42;1.20;;;0.50;;
25319;SDS011;13256;49.012;8.610;2023-10-31T01:19:09;1.10;;;0.40;;
25319;SDS011;13256;49.012;8.610;2023-10-31T01:21:38;0.35;;;0.35;;
25319;SDS011;13256;49.012;8.610;2023-10-31T01:24:06;2.05;;;0.52;;
25319;SDS011;13256;49.012;8.610;2023-10-31T01:26:36;2.97;;;0.60;;
25319;SDS011;13256;49.012;8.610;2023-10-31T01:29:03;0.98;;;0.35;;
25319;SDS011;13256;49.012;8.610;2023-10-31T01:31:31;1.70;;;0.50;;
25319;SDS011;13256;49.012;8.610;2023-10-31T01:36:38;1.55;;;0.57;;
25319;SDS011;13256;49.012;8.610;2023-10-31T01:39:09;4.43;;;0.77;;
25319;SDS011;13256;49.012;8.610;2023-10-31T01:41:42;2.80;;;0.60;;
25319;SDS011;13256;49.012;8.610;2023-10-31T01:44:13;0.55;;;0.52;;
25319;SDS011;13256;49.012;8.610;2023-10-31T01:52:56;0.43;;;0.43;;
25319;SDS011;13256;49.012;8.610;2023-10-31T01:55:25;1.95;;;0.43;;
25319;SDS011;13256;49.012;8.610;2023-10-31T01:57:55;2.55;;;0.60;;
25319;SDS011;13256;49.012;8.610;2023-10-31T02:00:25;4.82;;;0.57;;
25319;SDS011;13256;49.012;8.610;2023-10-31T02:02:53;1.27;;;0.40;;
25319;SDS011;13256;49.012;8.610;2023-10-31T02:05:23;1.17;;;0.77;;
25319;SDS011;13256;49.012;8.610;2023-10-31T02:07:56;0.85;;;0.50;;
25319;SDS011;13256;49.012;8.610;2023-10-31T02:10:26;2.08;;;0.60;;
25319;SDS011;13256;49.012;8.610;2023-10-31T02:15:46;0.50;;;0.50;;
25319;SDS011;13256;49.012;8.610;2023-10-31T02:21:12;2.67;;;0.60;;
25319;SDS011;13256;49.012;8.610;2023-10-31T02:23:42;1.15;;;0.70;;
25319;SDS011;13256;49.012;8.610;2023-10-31T02:26:11;1.05;;;0.50;;
25319;SDS011;13256;49.012;8.610;2023-10-31T02:31:22;1.15;;;0.60;;
25319;SDS011;13256;49.012;8.610;2023-10-31T02:33:51;2.80;;;0.63;;
25319;SDS011;13256;49.012;8.610;2023-10-31T02:36:18;1.67;;;0.95;;
25319;SDS011;13256;49.012;8.610;2023-10-31T02:38:49;2.13;;;0.50;;
25319;SDS011;13256;49.012;8.610;2023-10-31T02:41:16;4.80;;;0.60;;
25319;SDS011;13256;49.012;8.610;2023-10-31T02:47:08;1.17;;;0.60;;
25319;SDS011;13256;49.012;8.610;2023-10-31T02:52:37;1.50;;;0.47;;
25319;SDS011;13256;49.012;8.610;2023-10-31T02:55:06;1.85;;;0.60;;
25319;SDS011;13256;49.012;8.610;2023-10-31T02:57:33;1.25;;;0.60;;
25319;SDS011;13256;49.012;8.610;2023-10-31T03:00:04;2.17;;;0.43;;
25319;SDS011;13256;49.012;8.610;2023-10-31T03:19:33;0.82;;;0.40;;
25319;SDS011;13256;49.012;8.610;2023-10-31T03:22:00;1.27;;;0.50;;
25319;SDS011;13256;49.012;8.610;2023-10-31T03:24:30;0.90;;;0.50;;
25319;SDS011;13256;49.012;8.610;2023-10-31T03:30:09;4.10;;;0.60;;
25319;SDS011;13256;49.012;8.610;2023-10-31T03:32:43;1.80;;;0.50;;
25319;SDS011;13256;49.012;8.610;2023-10-31T03:35:12;2.28;;;0.50;;
25319;SDS011;13256;49.012;8.610;2023-10-31T03:37:42;0.40;;;0.40;;
25319;SDS011;13256;49.012;8.610;2023-10-31T03:40:11;1.35;;;0.47;;
25319;SDS011;13256;49.012;8.610;2023-10-31T03:45:46;2.40;;;0.50;;
25319;SDS011;13256;49.012;8.610;2023-10-31T03:48:21;0.60;;;0.50;;
25319;SDS011;13256;49.012;8.610;2023-10-31T03:50:55;1.77;;;0.52;;
25319;SDS011;13256;49.012;8.610;2023-10-31T03:53:23;2.47;;;0.60;;
25319;SDS011;13256;49.012;8.610;2023-10-31T04:07:31;3.50;;;1.25;;
25319;SDS011;13256;49.012;8.610;2023-10-31T04:13:01;8.30;;;1.60;;
25319;SDS011;13256;49.012;8.610;2023-10-31T04:21:07;6.07;;;0.90;;
25319;SDS011;13256;49.012;8.610;2023-10-31T04:23:41;2.42;;;0.75;;
25319;SDS011;13256;49.012;8.610;2023-10-31T04:26:07;0.82;;;0.80;;
25319;SDS011;13256;49.012;8.610;2023-10-31T04:28:38;1.23;;;0.40;;
25319;SDS011;13256;49.012;8.610;2023-10-31T04:31:09;4.07;;;1.23;;
25319;SDS011;13256;49.012;8.610;2023-10-31T04:33:36;4.05;;;2.50;;
25319;SDS011;13256;49.012;8.610;2023-10-31T04:44:51;2.53;;;1.13;;
25319;SDS011;13256;49.012;8.610;2023-10-31T04:47:23;1.73;;;0.68;;
25319;SDS011;13256;49.012;8.610;2023-10-31T07:06:22;2.08;;;1.00;;
25319;SDS011;13256;49.012;8.610;2023-10-31T07:08:51;3.38;;;1.08;;
25319;SDS011;13256;49.012;8.610;2023-10-31T07:29:30;3.42;;;1.05;;
25319;SDS011;13256;49.012;8.610;2023-10-31T07:31:58;3.65;;;1.42;;
25319;SDS011;13256;49.012;8.610;2023-10-31T07:34:29;2.47;;;1.38;;
25319;SDS011;13256;49.012;8.610;2023-10-31T07:36:56;6.30;;;1.45;;
25319;SDS011;13256;49.012;8.610;2023-10-31T07:39:26;2.25;;;1.45;;
25319;SDS011;13256;49.012;8.610;2023-10-31T07:41:53;2.90;;;1.20;;
25319;SDS011;13256;49.012;8.610;2023-10-31T07:44:22;5.60;;;1.45;;
25319;SDS011;13256;49.012;8.610;2023-10-31T07:46:50;3.10;;;1.00;;
25319;SDS011;13256;49.012;8.610;2023-10-31T07:49:18;5.45;;;1.30;;
25319;SDS011;13256;49.012;8.610;2023-10-31T07:51:50;4.88;;;1.10;;
25319;SDS011;13256;49.012;8.610;2023-10-31T07:54:19;2.65;;;1.35;;
25319;SDS011;13256;49.012;8.610;2023-10-31T07:56:46;4.32;;;1.60;;
25319;SDS011;13256;49.012;8.610;2023-10-31T07:59:13;6.20;;;1.63;;
25319;SDS011;13256;49.012;8.610;2023-10-31T08:01:40;4.00;;;1.30;;
25319;SDS011;13256;49.012;8.610;2023-10-31T08:06:58;3.35;;;1.17;;
25319;SDS011;13256;49.012;8.610;2023-10-31T08:09:25;8.05;;;1.40;;
25319;SDS011;13256;49.012;8.610;2023-10-31T08:11:54;5.50;;;0.90;;
25319;SDS011;13256;49.012;8.610;2023-10-31T08:14:50;3.63;;;1.02;;
25319;SDS011;13256;49.012;8.610;2023-10-31T08:17:18;2.15;;;0.85;;
25319;SDS011;13256;49.012;8.610;2023-10-31T08:19:45;1.73;;;1.00;;
25319;SDS011;13256;49.012;8.610;2023-10-31T08:22:14;3.67;;;1.20;;
25319;SDS011;13256;49.012;8.610;2023-10-31T08:24:46;2.40;;;0.90;;
25319;SDS011;13256;49.012;8.610;2023-10-31T08:27:14;3.80;;;1.00;;
25319;SDS011;13256;49.012;8.610;2023-10-31T08:29:44;6.03;;;1.10;;
25319;SDS011;13256;49.012;8.610;2023-10-31T08:32:11;3.50;;;1.00;;
25319;SDS011;13256;49.012;8.610;2023-10-31T08:34:38;3.85;;;0.80;;
25319;SDS011;13256;49.012;8.610;2023-10-31T08:37:09;3.15;;;0.95;;
25319;SDS011;13256;49.012;8.610;2023-10-31T08:39:37;5.63;;;1.27;;
25319;SDS011;13256;49.012;8.610;2023-10-31T08:42:04;3.00;;;1.15;;
25319;SDS011;13256;49.012;8.610;2023-10-31T08:44:39;4.40;;;1.10;;
25319;SDS011;13256;49.012;8.610;2023-10-31T08:47:06;2.55;;;0.80;;
25319;SDS011;13256;49.012;8.610;2023-10-31T08:49:39;6.97;;;1.08;;
25319;SDS011;13256;49.012;8.610;2023-10-31T08:52:07;2.47;;;1.00;;
25319;SDS011;13256;49.012;8.610;2023-10-31T08:55:01;2.53;;;0.63;;
25319;SDS011;13256;49.012;8.610;2023-10-31T08:57:31;4.25;;;1.02;;
25319;SDS011;13256;49.012;8.610;2023-10-31T09:00:00;2.72;;;1.10;;
25319;SDS011;13256;49.012;8.610;2023-10-31T09:02:33;4.65;;;0.90;;
25319;SDS011;13256;49.012;8.610;2023-10-31T09:05:02;4.75;;;1.00;;
25319;SDS011;13256;49.012;8.610;2023-10-31T09:07:29;2.65;;;0.93;;
25319;SDS011;13256;49.012;8.610;2023-10-31T09:09:57;4.78;;;0.98;;
25319;SDS011;13256;49.012;8.610;2023-10-31T09:12:24;6.05;;;1.27;;
25319;SDS011;13256;49.012;8.610;2023-10-31T09:14:51;7.78;;;1.42;;
25319;SDS011;13256;49.012;8.610;2023-10-31T09:17:18;4.70;;;1.00;;
25319;SDS011;13256;49.012;8.610;2023-10-31T09:20:10;2.05;;;0.98;;
25319;SDS011;13256;49.012;8.610;2023-10-31T09:22:37;2.65;;;1.20;;
25319;SDS011;13256;49.012;8.610;2023-10-31T09:25:05;4.75;;;1.00;;
25319;SDS011;13256;49.012;8.610;2023-10-31T09:27:41;3.22;;;0.90;;
25319;SDS011;13256;49.012;8.610;2023-10-31T09:30:10;2.50;;;0.80;;
25319;SDS011;13256;49.012;8.610;2023-10-31T09:32:40;4.53;;;0.93;;
25319;SDS011;13256;49.012;8.610;2023-10-31T09:35:08;5.68;;;0.90;;
25319;SDS011;13256;49.012;8.610;2023-10-31T09:37:35;5.07;;;1.23;;
25319;SDS011;13256;49.012;8.610;2023-10-31T09:40:02;5.57;;;0.90;;
25319;SDS011;13256;49.012;8.610;2023-10-31T09:42:31;8.15;;;1.45;;
25319;SDS011;13256;49.012;8.610;2023-10-31T09:44:58;4.60;;;1.15;;
25319;SDS011;13256;49.012;8.610;2023-10-31T09:47:30;5.43;;;1.00;;
25319;SDS011;13256;49.012;8.610;2023-10-31T09:50:25;1.77;;;1.05;;
25319;SDS011;13256;49.012;8.610;2023-10-31T09:52:52;6.78;;;0.95;;
25319;SDS011;13256;49.012;8.610;2023-10-31T09:55:20;5.45;;;0.88;;
25319;SDS011;13256;49.012;8.610;2023-10-31T09:57:48;6.43;;;1.70;;
25319;SDS011;13256;49.012;8.610;2023-10-31T10:00:17;7.63;;;1.60;;
25319;SDS011;13256;49.012;8.610;2023-10-31T10:02:44;5.18;;;1.08;;
25319;SDS011;13256;49.012;8.610;2023-10-31T10:05:11;2.70;;;0.82;;
25319;SDS011;13256;49.012;8.610;2023-10-31T10:07:44;4.78;;;1.27;;
25319;SDS011;13256;49.012;8.610;2023-10-31T10:10:12;4.88;;;1.20;;
25319;SDS011;13256;49.012;8.610;2023-10-31T10:12:41;1.95;;;1.00;;
25319;SDS011;13256;49.012;8.610;2023-10-31T10:15:15;5.18;;;1.15;;
25319;SDS011;13256;49.012;8.610;2023-10-31T10:17:48;6.68;;;0.95;;
25319;SDS011;13256;49.012;8.610;2023-10-31T10:20:17;2.80;;;1.00;;
25319;SDS011;13256;49.012;8.610;2023-10-31T10:22:45;4.47;;;1.35;;
25319;SDS011;13256;49.012;8.610;2023-10-31T10:25:16;3.75;;;1.00;;
25319;SDS011;13256;49.012;8.610;2023-10-31T10:27:48;4.32;;;1.10;;
25319;SDS011;13256;49.012;8.610;2023-10-31T10:30:15;6.00;;;0.88;;
25319;SDS011;13256;49.012;8.610;2023-10-31T10:32:43;3.53;;;1.10;;
25319;SDS011;13256;49.012;8.610;2023-10-31T10:35:11;3.45;;;1.00;;
25319;SDS011;13256;49.012;8.610;2023-10-31T10:37:40;7.38;;;1.35;;
25319;SDS011;13256;49.012;8.610;2023-10-31T10:40:10;6.47;;;1.15;;
25319;SDS011;13256;49.012;8.610;2023-10-31T10:42:52;2.70;;;0.75;;
25319;SDS011;13256;49.012;8.610;2023-10-31T10:45:26;0.82;;;0.60;;
25319;SDS011;13256;49.012;8.610;2023-10-31T10:47:54;2.30;;;0.77;;
25319;SDS011;13256;49.012;8.610;2023-10-31T10:50:27;2.72;;;0.63;;
25319;SDS011;13256;49.012;8.610;2023-10-31T10:55:51;3.78;;;0.98;;
25319;SDS011;13256;49.012;8.610;2023-10-31T10:58:36;1.25;;;0.70;;
25319;SDS011;13256;49.012;8.610;2023-10-31T11:01:08;1.73;;;0.70;;
25319;SDS011;13256;49.012;8.610;2023-10-31T11:03:37;2.88;;;1.10;;
25319;SDS011;13256;49.012;8.610;2023-10-31T11:06:06;3.58;;;1.02;;
25319;SDS011;13256;49.012;8.610;2023-10-31T11:08:34;3.42;;;0.85;;
25319;SDS011;13256;49.012;8.610;2023-10-31T11:11:07;7.22;;;1.00;;
25319;SDS011;13256;49.012;8.610;2023-10-31T11:13:35;4.05;;;1.02;;
25319;SDS011;13256;49.012;8.610;2023-10-31T11:16:07;1.95;;;0.90;;
25319;SDS011;13256;49.012;8.610;2023-10-31T11:18:44;4.13;;;0.90;;
25319;SDS011;13256;49.012;8.610;2023-10-31T11:21:16;6.38;;;1.10;;
25319;SDS011;13256;49.012;8.610;2023-10-31T11:26:40;4.60;;;1.75;;
25319;SDS011;13256;49.012;8.610;2023-10-31T11:29:18;5.15;;;0.70;;
25319;SDS011;13256;49.012;8.610;2023-10-31T11:31:46;2.05;;;0.75;;
25319;SDS011;13256;49.012;8.610;2023-10-31T11:37:48;3.22;;;1.13;;
25319;SDS011;13256;49.012;8.610;2023-10-31T11:43:03;4.85;;;1.50;;
25319;SDS011;13256;49.012;8.610;2023-10-31T11:45:41;3.75;;;1.65;;
25319;SDS011;13256;49.012;8.610;2023-10-31T11:51:15;2.90;;;1.50;;
25319;SDS011;13256;49.012;8.610;2023-10-31T11:53:43;4.47;;;1.65;;
25319;SDS011;13256;49.012;8.610;2023-10-31T11:56:21;4.85;;;2.15;;
25319;SDS011;13256;49.012;8.610;2023-10-31T11:58:56;4.70;;;1.85;;
25319;SDS011;13256;49.012;8.610;2023-10-31T12:01:27;4.38;;;1.73;;
25319;SDS011;13256;49.012;8.610;2023-10-31T12:03:55;3.65;;;1.55;;
25319;SDS011;13256;49.012;8.610;2023-10-31T12:06:22;2.75;;;1.13;;
25319;SDS011;13256;49.012;8.610;2023-10-31T12:08:48;4.60;;;2.08;;
25319;SDS011;13256;49.012;8.610;2023-10-31T12:11:22;4.25;;;2.20;;
25319;SDS011;13256;49.012;8.610;2023-10-31T12:13:57;6.65;;;2.85;;
25319;SDS011;13256;49.012;8.610;2023-10-31T12:16:28;5.30;;;1.98;;
25319;SDS011;13256;49.012;8.610;2023-10-31T12:19:02;8.23;;;2.25;;
25319;SDS011;13256;49.012;8.610;2023-10-31T12:21:44;5.78;;;2.05;;
25319;SDS011;13256;49.012;8.610;2023-10-31T12:24:19;6.20;;;2.00;;
25319;SDS011;13256;49.012;8.610;2023-10-31T12:26:49;3.75;;;1.30;;
25319;SDS011;13256;49.012;8.610;2023-10-31T12:29:18;1.27;;;0.90;;
25319;SDS011;13256;49.012;8.610;2023-10-31T12:31:50;4.82;;;1.30;;
25319;SDS011;13256;49.012;8.610;2023-10-31T12:34:20;3.58;;;1.08;;
25319;SDS011;13256;49.012;8.610;2023-10-31T12:36:49;1.42;;;0.73;;
25319;SDS011;13256;49.012;8.610;2023-10-31T12:39:23;1.27;;;0.75;;
25319;SDS011;13256;49.012;8.610;2023-10-31T12:41:56;2.33;;;0.93;;
25319;SDS011;13256;49.012;8.610;2023-10-31T12:44:24;2.05;;;0.80;;
25319;SDS011;13256;49.012;8.610;2023-10-31T12:46:56;7.35;;;1.23;;
25319;SDS011;13256;49.012;8.610;2023-10-31T12:49:29;1.48;;;0.80;;
25319;SDS011;13256;49.012;8.610;2023-10-31T12:52:04;2.28;;;0.70;;
25319;SDS011;13256;49.012;8.610;2023-10-31T12:54:33;2.70;;;1.00;;
25319;SDS011;13256;49.012;8.610;2023-10-31T12:57:09;3.22;;;0.80;;
25319;SDS011;13256;49.012;8.610;2023-10-31T12:59:39;1.73;;;0.82;;
25319;SDS011;13256;49.012;8.610;2023-10-31T13:02:08;1.45;;;0.93;;
25319;SDS011;13256;49.012;8.610;2023-10-31T13:04:41;1.27;;;0.73;;
25319;SDS011;13256;49.012;8.610;2023-10-31T13:07:08;1.95;;;0.85;;
25319;SDS011;13256;49.012;8.610;2023-10-31T13:09:37;2.15;;;0.80;;
25319;SDS011;13256;49.012;8.610;2023-10-31T13:12:08;3.95;;;1.05;;
25319;SDS011;13256;49.012;8.610;2023-10-31T13:14:37;1.67;;;0.70;;
25319;SDS011;13256;49.012;8.610;2023-10-31T13:17:11;2.60;;;1.10;;
25319;SDS011;13256;49.012;8.610;2023-10-31T13:19:44;2.25;;;0.77;;
25319;SDS011;13256;49.012;8.610;2023-10-31T13:22:20;2.60;;;1.00;;
25319;SDS011;13256;49.012;8.610;2023-10-31T13:24:47;3.72;;;0.52;;
25319;SDS011;13256;49.012;8.610;2023-10-31T13:27:20;2.53;;;0.65;;
25319;SDS011;13256;49.012;8.610;2023-10-31T13:29:49;0.98;;;0.85;;
25319;SDS011;13256;49.012;8.610;2023-10-31T13:32:16;1.75;;;0.90;;
25319;SDS011;13256;49.012;8.610;2023-10-31T13:34:48;2.83;;;0.75;;
25319;SDS011;13256;49.012;8.610;2023-10-31T13:37:17;4.38;;;0.90;;
25319;SDS011;13256;49.012;8.610;2023-10-31T13:39:50;3.90;;;0.90;;
25319;SDS011;13256;49.012;8.610;2023-10-31T13:42:21;2.22;;;1.00;;
25319;SDS011;13256;49.012;8.610;2023-10-31T13:44:49;2.35;;;0.80;;
25319;SDS011;13256;49.012;8.610;2023-10-31T13:47:15;1.13;;;0.60;;
25319;SDS011;13256;49.012;8.610;2023-10-31T13:49:43;2.45;;;0.80;;
25319;SDS011;13256;49.012;8.610;2023-10-31T13:52:11;2.60;;;0.75;;
25319;SDS011;13256;49.012;8.610;2023-10-31T13:54:53;2.63;;;1.08;;
25319;SDS011;13256;49.012;8.610;2023-10-31T13:57:22;4.82;;;0.80;;
25319;SDS011;13256;49.012;8.610;2023-10-31T13:59:50;4.18;;;0.73;;
25319;SDS011;13256;49.012;8.610;2023-10-31T14:02:17;0.93;;;0.50;;
25319;SDS011;13256;49.012;8.610;2023-10-31T14:04:45;1.85;;;0.98;;
25319;SDS011;13256;49.012;8.610;2023-10-31T14:07:14;4.40;;;0.80;;
25319;SDS011;13256;49.012;8.610;2023-10-31T14:10:05;3.20;;;0.82;;
25319;SDS011;13256;49.012;8.610;2023-10-31T14:12:34;1.70;;;0.65;;
25319;SDS011;13256;49.012;8.610;2023-10-31T14:15:01;1.27;;;0.70;;
25319;SDS011;13256;49.012;8.610;2023-10-31T14:17:33;1.15;;;0.60;;
25319;SDS011;13256;49.012;8.610;2023-10-31T14:20:00;1.83;;;0.60;;
25319;SDS011;13256;49.012;8.610;2023-10-31T14:25:23;1.70;;;0.80;;
25319;SDS011;13256;49.012;8.610;2023-10-31T14:27:55;4.03;;;0.70;;
25319;SDS011;13256;49.012;8.610;2023-10-31T14:34:45;1.13;;;0.45;;
25319;SDS011;13256;49.012;8.610;2023-10-31T14:37:17;3.92;;;0.80;;
25319;SDS011;13256;49.012;8.610;2023-10-31T14:39:48;1.38;;;0.60;;
25319;SDS011;13256;49.012;8.610;2023-10-31T14:42:15;1.92;;;0.70;;
25319;SDS011;13256;49.012;8.610;2023-10-31T14:44:42;4.05;;;0.93;;
25319;SDS011;13256;49.012;8.610;2023-10-31T14:47:10;3.58;;;1.00;;
25319;SDS011;13256;49.012;8.610;2023-10-31T14:49:39;3.22;;;0.75;;
25319;SDS011;13256;49.012;8.610;2023-10-31T14:52:32;1.75;;;0.70;;
25319;SDS011;13256;49.012;8.610;2023-10-31T14:55:01;1.08;;;0.60;;
25319;SDS011;13256;49.012;8.610;2023-10-31T14:57:30;2.65;;;0.85;;
25319;SDS011;13256;49.012;8.610;2023-10-31T15:00:02;2.42;;;0.98;;
25319;SDS011;13256;49.012;8.610;2023-10-31T15:02:30;3.03;;;0.82;;
25319;SDS011;13256;49.012;8.610;2023-10-31T15:04:57;2.47;;;1.20;;
25319;SDS011;13256;49.012;8.610;2023-10-31T15:07:23;2.38;;;1.10;;
25319;SDS011;13256;49.012;8.610;2023-10-31T15:09:52;3.60;;;0.90;;
25319;SDS011;13256;49.012;8.610;2023-10-31T15:12:19;3.90;;;0.77;;
25319;SDS011;13256;49.012;8.610;2023-10-31T15:14:46;2.97;;;0.88;;
25319;SDS011;13256;49.012;8.610;2023-10-31T15:17:17;4.07;;;2.00;;
25319;SDS011;13256;49.012;8.610;2023-10-31T15:19:43;2.25;;;1.20;;
25319;SDS011;13256;49.012;8.610;2023-10-31T15:22:12;1.67;;;1.25;;
25319;SDS011;13256;49.012;8.610;2023-10-31T15:24:39;3.20;;;0.95;;
25319;SDS011;13256;49.012;8.610;2023-10-31T15:27:06;2.60;;;1.20;;
25319;SDS011;13256;49.012;8.610;2023-10-31T15:29:35;1.92;;;1.25;;
25319;SDS011;13256;49.012;8.610;2023-10-31T15:32:09;1.92;;;1.15;;
25319;SDS011;13256;49.012;8.610;2023-10-31T15:34:39;4.75;;;1.20;;
25319;SDS011;13256;49.012;8.610;2023-10-31T15:37:09;2.67;;;1.20;;
25319;SDS011;13256;49.012;8.610;2023-10-31T15:39:42;3.10;;;1.90;;
25319;SDS011;13256;49.012;8.610;2023-10-31T15:42:09;2.47;;;1.40;;
25319;SDS011;13256;49.012;8.610;2023-10-31T15:44:36;2.95;;;1.40;;
25319;SDS011;13256;49.012;8.610;2023-10-31T15:47:11;4.82;;;1.08;;
25319;SDS011;13256;49.012;8.610;2023-10-31T15:49:42;2.78;;;1.20;;
25319;SDS011;13256;49.012;8.610;2023-10-31T15:52:12;5.38;;;1.33;;
25319;SDS011;13256;49.012;8.610;2023-10-31T15:57:17;2.75;;;1.40;;
25319;SDS011;13256;49.012;8.610;2023-10-31T15:59:48;3.40;;;1.38;;
25319;SDS011;13256;49.012;8.610;2023-10-31T16:02:15;3.50;;;1.40;;
25319;SDS011;13256;49.012;8.610;2023-10-31T16:04:47;5.68;;;1.80;;
25319;SDS011;13256;49.012;8.610;2023-10-31T16:07:15;5.28;;;1.98;;
25319;SDS011;13256;49.012;8.610;2023-10-31T16:09:44;2.95;;;1.85;;
25319;SDS011;13256;49.012;8.610;2023-10-31T16:12:11;8.75;;;5.43;;
25319;SDS011;13256;49.012;8.610;2023-10-31T16:14:41;2.95;;;1.75;;
25319;SDS011;13256;49.012;8.610;2023-10-31T16:17:07;2.97;;;1.60;;
25319;SDS011;13256;49.012;8.610;2023-10-31T16:22:29;4.28;;;1.40;;
25319;SDS011;13256;49.012;8.610;2023-10-31T16:24:57;4.10;;;2.13;;
25319;SDS011;13256;49.012;8.610;2023-10-31T16:27:28;5.80;;;1.67;;
25319;SDS011;13256;49.012;8.610;2023-10-31T16:29:56;3.25;;;2.22;;
25319;SDS011;13256;49.012;8.610;2023-10-31T16:32:22;2.33;;;1.40;;
25319;SDS011;13256;49.012;8.610;2023-10-31T16:34:49;3.25;;;1.48;;
25319;SDS011;13256;49.012;8.610;2023-10-31T16:37:19;3.55;;;1.65;;
25319;SDS011;13256;49.012;8.610;2023-10-31T16:39:49;5.47;;;2.28;;
25319;SDS011;13256;49.012;8.610;2023-10-31T16:42:15;3.15;;;2.25;;
25319;SDS011;13256;49.012;8.610;2023-10-31T16:44:44;10.68;;;4.55;;
25319;SDS011;13256;49.012;8.610;2023-10-31T16:47:16;14.95;;;7.28;;
25319;SDS011;13256;49.012;8.610;2023-10-31T16:49:42;9.88;;;3.78;;
25319;SDS011;13256;49.012;8.610;2023-10-31T16:52:10;9.23;;;4.10;;
25319;SDS011;13256;49.012;8.610;2023-10-31T16:54:39;12.50;;;5.45;;
25319;SDS011;13256;49.012;8.610;2023-10-31T16:57:12;13.90;;;5.82;;
25319;SDS011;13256;49.012;8.610;2023-10-31T16:59:41;9.85;;;4.63;;
25319;SDS011;13256;49.012;8.610;2023-10-31T17:02:08;3.00;;;1.98;;
25319;SDS011;13256;49.012;8.610;2023-10-31T17:05:01;5.50;;;2.42;;
25319;SDS011;13256;49.012;8.610;2023-10-31T17:07:32;7.38;;;2.30;;
25319;SDS011;13256;49.012;8.610;2023-10-31T17:09:59;2.40;;;1.40;;
25319;SDS011;13256;49.012;8.610;2023-10-31T17:12:26;1.17;;;1.00;;
25319;SDS011;13256;49.012;8.610;2023-10-31T17:14:53;1.65;;;1.13;;
25319;SDS011;13256;49.012;8.610;2023-10-31T17:17:24;2.17;;;1.50;;
25319;SDS011;13256;49.012;8.610;2023-10-31T17:19:55;2.97;;;1.42;;
25319;SDS011;13256;49.012;8.610;2023-10-31T17:22:26;2.92;;;1.50;;
25319;SDS011;13256;49.012;8.610;2023-10-31T17:24:53;1.35;;;0.93;;
25319;SDS011;13256;49.012;8.610;2023-10-31T17:27:23;7.50;;;2.05;;
25319;SDS011;13256;49.012;8.610;2023-10-31T17:29:56;2.83;;;1.52;;
25319;SDS011;13256;49.012;8.610;2023-10-31T17:32:30;1.00;;;0.90;;
25319;SDS011;13256;49.012;8.610;2023-10-31T17:34:58;1.55;;;1.25;;
25319;SDS011;13256;49.012;8.610;2023-10-31T17:37:29;4.80;;;1.23;;
25319;SDS011;13256;49.012;8.610;2023-10-31T17:39:58;2.60;;;1.10;;
25319;SDS011;13256;49.012;8.610;2023-10-31T17:42:26;9.13;;;1.30;;
25319;SDS011;13256;49.012;8.610;2023-10-31T17:44:56;2.70;;;1.83;;
25319;SDS011;13256;49.012;8.610;2023-10-31T17:47:26;1.75;;;1.23;;
25319;SDS011;13256;49.012;8.610;2023-10-31T17:49:53;1.95;;;0.90;;
25319;SDS011;13256;49.012;8.610;2023-10-31T17:52:29;2.92;;;2.05;;
25319;SDS011;13256;49.012;8.610;2023-10-31T17:54:57;1.85;;;1.10;;
25319;SDS011;13256;49.012;8.610;2023-10-31T17:57:26;4.35;;;2.28;;
25319;SDS011;13256;49.012;8.610;2023-10-31T17:59:56;2.03;;;1.75;;
25319;SDS011;13256;49.012;8.610;2023-10-31T18:02:24;1.95;;;1.15;;
25319;SDS011;13256;49.012;8.610;2023-10-31T18:04:51;2.03;;;1.10;;
25319;SDS011;13256;49.012;8.610;2023-10-31T18:07:47;2.25;;;1.50;;
25319;SDS011;13256;49.012;8.610;2023-10-31T18:10:14;2.17;;;1.50;;
25319;SDS011;13256;49.012;8.610;2023-10-31T18:12:46;2.05;;;1.67;;
25319;SDS011;13256;49.012;8.610;2023-10-31T18:15:19;3.03;;;1.33;;
25319;SDS011;13256;49.012;8.610;2023-10-31T18:17:49;1.83;;;1.20;;
25319;SDS011;13256;49.012;8.610;2023-10-31T18:20:22;2.20;;;1.45;;
25319;SDS011;13256;49.012;8.610;2023-10-31T18:22:49;3.15;;;1.60;;
25319;SDS011;13256;49.012;8.610;2023-10-31T18:25:16;3.53;;;1.67;;
25319;SDS011;13256;49.012;8.610;2023-10-31T18:27:46;1.20;;;1.02;;
25319;SDS011;13256;49.012;8.610;2023-10-31T18:30:15;1.90;;;1.20;;
25319;SDS011;13256;49.012;8.610;2023-10-31T18:32:45;6.78;;;3.20;;
25319;SDS011;13256;49.012;8.610;2023-10-31T18:35:19;2.28;;;1.38;;
25319;SDS011;13256;49.012;8.610;2023-10-31T18:37:50;1.65;;;1.48;;
25319;SDS011;13256;49.012;8.610;2023-10-31T18:40:17;4.57;;;2.28;;
25319;SDS011;13256;49.012;8.610;2023-10-31T18:42:51;10.70;;;5.28;;
25319;SDS011;13256;49.012;8.610;2023-10-31T18:45:20;6.38;;;2.80;;
25319;SDS011;13256;49.012;8.610;2023-10-31T18:47:48;2.95;;;1.80;;
25319;SDS011;13256;49.012;8.610;2023-10-31T18:50:16;3.03;;;1.50;;
25319;SDS011;13256;49.012;8.610;2023-10-31T18:52:43;2.05;;;1.60;;
25319;SDS011;13256;49.012;8.610;2023-10-31T18:55:10;2.13;;;1.80;;
25319;SDS011;13256;49.012;8.610;2023-10-31T18:57:37;3.38;;;1.38;;
25319;SDS011;13256;49.012;8.610;2023-10-31T19:00:09;2.30;;;0.90;;
25319;SDS011;13256;49.012;8.610;2023-10-31T19:02:38;1.23;;;0.80;;
25319;SDS011;13256;49.012;8.610;2023-10-31T19:05:15;1.25;;;1.00;;
25319;SDS011;13256;49.012;8.610;2023-10-31T19:07:42;2.47;;;1.00;;
25319;SDS011;13256;49.012;8.610;2023-10-31T19:10:13;1.08;;;0.80;;
25319;SDS011;13256;49.012;8.610;2023-10-31T19:12:42;3.17;;;1.30;;
25319;SDS011;13256;49.012;8.610;2023-10-31T19:15:10;1.58;;;1.00;;
25319;SDS011;13256;49.012;8.610;2023-10-31T19:17:37;3.28;;;0.65;;
25319;SDS011;13256;49.012;8.610;2023-10-31T19:20:04;2.80;;;0.88;;
25319;SDS011;13256;49.012;8.610;2023-10-31T19:23:01;1.77;;;1.15;;
25319;SDS011;13256;49.012;8.610;2023-10-31T19:25:29;2.58;;;1.40;;
25319;SDS011;13256;49.012;8.610;2023-10-31T19:28:03;1.00;;;0.80;;
25319;SDS011;13256;49.012;8.610;2023-10-31T19:30:33;3.80;;;1.00;;
25319;SDS011;13256;49.012;8.610;2023-10-31T19:33:02;4.85;;;1.63;;
25319;SDS011;13256;49.012;8.610;2023-10-31T19:35:29;16.60;;;7.07;;
25319;SDS011;13256;49.012;8.610;2023-10-31T19:38:00;2.30;;;1.55;;
25319;SDS011;13256;49.012;8.610;2023-10-31T19:40:27;3.30;;;1.08;;
25319;SDS011;13256;49.012;8.610;2023-10-31T19:42:56;1.90;;;1.00;;
25319;SDS011;13256;49.012;8.610;2023-10-31T19:45:24;2.83;;;1.25;;
25319;SDS011;13256;49.012;8.610;2023-10-31T19:47:53;0.93;;;0.77;;
25319;SDS011;13256;49.012;8.610;2023-10-31T19:50:21;1.30;;;0.85;;
25319;SDS011;13256;49.012;8.610;2023-10-31T19:52:52;2.38;;;1.20;;
25319;SDS011;13256;49.012;8.610;2023-10-31T19:55:28;2.97;;;0.98;;
25319;SDS011;13256;49.012;8.610;2023-10-31T19:58:08;2.42;;;1.10;;